Time;durP1;ratioP1;P1;durP2;ratioP2;P2;SDS_P1;SDS_P2;PMS_P1;PMS_P2;Temp;Humidity;BMP_temperature;BMP_pressure;BME280_temperature;BME280_humidity;BME280_pressure;Samples;Min_cycle;Max_cycle;Signal;HPM_P1;HPM_P2
2022/11/12 05:04:15;;;;;;;4.40;4.10;;;4.60;99.90;;;;;;5820582;23;20247;-64
2022/11/12 05:06:53;;;;;;;3.70;3.30;;;4.50;99.90;;;;;;4975514;28;20536;-63
2022/11/12 05:09:20;;;;;;;5.32;4.15;;;4.50;99.90;;;;;;4974591;28;20647;-64
2022/11/12 05:11:46;;;;;;;5.50;4.82;;;4.40;99.90;;;;;;4974697;28;20185;-64
2022/11/12 05:14:12;;;;;;;4.93;4.43;;;4.40;99.90;;;;;;4966931;28;20676;-64
2022/11/12 05:16:38;;;;;;;4.15;3.85;;;4.30;99.90;;;;;;4955609;29;20301;-65
2022/11/12 05:19:04;;;;;;;7.03;4.33;;;4.30;99.90;;;;;;4955581;29;20285;-64
2022/11/12 05:24:14;;;;;;;5.55;4.70;;;4.30;99.90;;;;;;4954876;28;20216;-63
2022/11/12 05:26:39;;;;;;;4.27;3.57;;;4.40;99.90;;;;;;4955493;29;20182;-64
2022/11/12 05:29:05;;;;;;;7.57;4.40;;;4.40;99.90;;;;;;4955928;29;20173;-64
2022/11/12 05:31:31;;;;;;;4.37;3.87;;;4.40;99.90;;;;;;4955717;29;20177;-64
2022/11/12 05:33:57;;;;;;;5.03;4.20;;;4.40;99.90;;;;;;4953733;28;20459;-64
2022/11/12 05:36:22;;;;;;;4.80;4.33;;;4.30;99.90;;;;;;4955161;29;20176;-64
2022/11/12 05:38:48;;;;;;;5.17;3.77;;;4.30;99.90;;;;;;4955011;29;20203;-64
2022/11/12 05:41:14;;;;;;;7.47;4.50;;;4.30;99.90;;;;;;4954853;29;20208;-64
2022/11/12 05:43:39;;;;;;;7.40;5.60;;;4.30;99.90;;;;;;4954798;28;20245;-63
2022/11/12 05:46:05;;;;;;;5.53;5.10;;;4.20;99.90;;;;;;4955489;29;20605;-63
2022/11/12 05:48:30;;;;;;;5.17;4.77;;;4.20;99.90;;;;;;4955138;29;20472;-63
2022/11/12 05:50:56;;;;;;;4.10;3.80;;;4.20;99.90;;;;;;4954952;29;20173;-65
2022/11/12 05:53:22;;;;;;;5.93;5.43;;;4.20;99.90;;;;;;4954014;28;20207;-64
2022/11/12 05:55:48;;;;;;;6.53;5.30;;;4.20;99.90;;;;;;4955214;29;20253;-64
2022/11/12 05:58:13;;;;;;;6.10;5.50;;;4.20;99.90;;;;;;4955044;29;20478;-65
2022/11/12 06:00:39;;;;;;;8.10;5.17;;;4.20;99.90;;;;;;4955185;29;20169;-64
2022/11/12 06:03:06;;;;;;;3.77;3.53;;;4.20;99.90;;;;;;4954521;29;20259;-64
2022/11/12 06:05:32;;;;;;;4.20;3.80;;;4.20;99.90;;;;;;4954421;28;20595;-64
2022/11/12 06:07:58;;;;;;;4.70;4.25;;;4.20;99.90;;;;;;4954802;29;20308;-64
2022/11/12 06:10:24;;;;;;;4.55;3.70;;;4.20;99.90;;;;;;4954891;29;20173;-64
2022/11/12 06:12:51;;;;;;;4.38;3.97;;;4.20;99.90;;;;;;4954389;29;20172;-64
2022/11/12 06:15:17;;;;;;;8.65;4.57;;;4.20;99.90;;;;;;4954735;28;20530;-64
2022/11/12 06:17:42;;;;;;;5.57;5.07;;;4.20;99.90;;;;;;4954613;29;20172;-63
2022/11/12 06:20:08;;;;;;;4.27;3.50;;;4.20;99.90;;;;;;4954399;29;20232;-63
2022/11/12 06:22:34;;;;;;;5.20;4.70;;;4.20;99.90;;;;;;4954396;29;20248;-67
2022/11/12 06:25:01;;;;;;;4.32;3.80;;;4.20;99.90;;;;;;4954469;28;20657;-64
2022/11/12 06:27:27;;;;;;;4.80;4.30;;;4.20;99.90;;;;;;4954309;29;20256;-64
2022/11/12 06:29:52;;;;;;;4.90;4.50;;;4.20;99.90;;;;;;4954844;29;20174;-64
2022/11/12 06:32:18;;;;;;;4.47;3.97;;;4.20;99.90;;;;;;4954601;29;20632;-64
2022/11/12 06:34:43;;;;;;;5.17;4.70;;;4.30;99.90;;;;;;4954129;28;20725;-63
2022/11/12 06:37:09;;;;;;;4.37;4.03;;;4.30;99.90;;;;;;4954697;29;20201;-63
2022/11/12 06:39:34;;;;;;;5.47;4.97;;;4.30;99.90;;;;;;4954349;29;20669;-64
2022/11/12 06:42:01;;;;;;;4.40;4.10;;;4.40;99.90;;;;;;4952280;29;20739;-64
2022/11/12 06:44:27;;;;;;;4.38;3.97;;;4.40;99.90;;;;;;4953118;28;20197;-64
2022/11/12 06:46:53;;;;;;;3.93;3.37;;;4.40;99.90;;;;;;4954444;29;20177;-64
2022/11/12 06:49:18;;;;;;;5.23;4.80;;;4.50;99.90;;;;;;4954438;28;20167;-63
2022/11/12 06:51:44;;;;;;;4.67;4.27;;;4.50;99.90;;;;;;4953486;29;20192;-63
2022/11/12 06:54:09;;;;;;;4.80;4.40;;;4.60;99.90;;;;;;4953843;28;20188;-64
2022/11/12 06:56:35;;;;;;;5.30;4.47;;;4.60;99.90;;;;;;4954055;29;20176;-64
2022/11/12 06:59:01;;;;;;;4.33;3.90;;;4.70;99.90;;;;;;4954204;29;20226;-65
2022/11/12 07:01:26;;;;;;;4.90;4.30;;;4.80;99.90;;;;;;4954322;29;20201;-64
2022/11/12 07:03:53;;;;;;;8.40;5.13;;;4.90;99.90;;;;;;4953897;28;20210;-64
2022/11/12 07:06:19;;;;;;;5.93;4.85;;;4.90;99.90;;;;;;4956595;28;20568;-65
2022/11/12 07:08:49;;;;;;;6.53;4.93;;;5.00;99.90;;;;;;4957777;29;20592;-64
2022/11/12 07:11:16;;;;;;;6.07;5.47;;;5.20;99.90;;;;;;4957060;29;20181;-66
2022/11/12 07:13:43;;;;;;;7.70;5.68;;;5.30;99.90;;;;;;4957464;28;20205;-65
2022/11/12 07:16:17;;;;;;;5.47;4.38;;;5.40;99.90;;;;;;4957803;29;20169;-65
2022/11/12 07:18:44;;;;;;;6.97;6.28;;;5.40;99.90;;;;;;4940376;29;20663;-65
2022/11/12 07:21:12;;;;;;;6.35;5.75;;;5.60;99.90;;;;;;4954365;28;20211;-66
2022/11/12 07:23:38;;;;;;;7.25;6.65;;;5.80;99.90;;;;;;4957203;28;20189;-64
2022/11/12 07:26:18;;;;;;;6.05;5.35;;;6.00;99.90;;;;;;4957738;29;20165;-66
2022/11/12 07:28:44;;;;;;;6.45;5.75;;;6.30;99.90;;;;;;4957566;29;20168;-65
2022/11/12 07:31:12;;;;;;;7.43;6.72;;;6.50;99.90;;;;;;4957496;29;20172;-66
2022/11/12 07:33:38;;;;;;;5.32;4.82;;;6.70;99.90;;;;;;4956737;28;20251;-65
2022/11/12 07:36:13;;;;;;;5.75;5.18;;;6.90;99.90;;;;;;4957480;29;20173;-65
2022/11/12 07:38:40;;;;;;;8.13;5.80;;;7.00;99.90;;;;;;4957118;29;20251;-65
2022/11/12 07:41:09;;;;;;;5.38;4.53;;;7.10;99.90;;;;;;4957458;29;20243;-64
2022/11/12 07:43:36;;;;;;;5.88;5.13;;;7.20;99.90;;;;;;4954067;28;20216;-66
2022/11/12 07:46:05;;;;;;;6.85;5.68;;;7.40;99.90;;;;;;4956210;28;20529;-66
2022/11/12 07:48:31;;;;;;;6.53;5.93;;;7.50;99.90;;;;;;4956853;29;20207;-67
2022/11/12 07:51:01;;;;;;;5.63;4.70;;;7.70;99.90;;;;;;4957033;29;20177;-66
2022/11/12 07:53:27;;;;;;;5.53;5.03;;;8.10;99.90;;;;;;4955629;28;20180;-68
2022/11/12 07:55:58;;;;;;;8.63;5.17;;;8.30;99.90;;;;;;4945607;28;20184;-66
2022/11/12 07:58:25;;;;;;;5.15;4.65;;;8.50;99.90;;;;;;4957055;28;20410;-66
2022/11/12 08:00:51;;;;;;;4.82;4.43;;;8.80;99.90;;;;;;4956918;28;20273;-69
2022/11/12 08:03:17;;;;;;;5.13;4.70;;;9.10;99.90;;;;;;4956185;28;20216;-67
2022/11/12 08:05:43;;;;;;;6.07;4.57;;;9.50;99.90;;;;;;4956571;28;20413;-67
2022/11/12 08:08:10;;;;;;;4.90;4.40;;;10.10;99.90;;;;;;4956907;28;20495;-67
2022/11/12 08:10:35;;;;;;;5.50;4.90;;;10.90;99.90;;;;;;4956711;29;20394;-66
2022/11/12 08:13:01;;;;;;;4.30;4.00;;;12.00;99.90;;;;;;4934435;29;20424;-68
2022/11/12 08:15:27;;;;;;;5.30;4.80;;;13.10;99.90;;;;;;4956657;28;20497;-65
2022/11/12 08:17:52;;;;;;;5.17;4.70;;;14.10;99.90;;;;;;4955850;28;20576;-67
2022/11/12 08:20:18;;;;;;;4.57;4.17;;;15.10;99.90;;;;;;4955876;29;20177;-68
2022/11/12 08:22:44;;;;;;;4.13;3.80;;;15.70;99.90;;;;;;4956064;29;20206;-68
2022/11/12 08:25:09;;;;;;;4.13;3.63;;;16.10;99.90;;;;;;4956459;28;20185;-68
2022/11/12 08:27:35;;;;;;;4.17;3.70;;;16.50;99.90;;;;;;4956495;29;20633;-68
2022/11/12 08:30:02;;;;;;;3.90;3.60;;;16.80;99.90;;;;;;4956515;29;20219;-69
2022/11/12 08:32:27;;;;;;;3.67;3.37;;;17.20;99.90;;;;;;4955665;29;20185;-73
2022/11/12 08:34:53;;;;;;;5.80;4.53;;;17.50;99.90;;;;;;4956315;28;20783;-69
2022/11/12 08:37:18;;;;;;;3.90;3.60;;;17.70;99.50;;;;;;4956505;29;20704;-70
2022/11/12 08:39:44;;;;;;;3.97;3.57;;;18.00;97.20;;;;;;4956505;29;20188;-67
2022/11/12 08:42:10;;;;;;;4.43;4.13;;;18.10;96.40;;;;;;4956223;29;20240;-73
2022/11/12 08:44:35;;;;;;;3.87;3.50;;;18.30;96.40;;;;;;4955553;28;20181;-69
2022/11/12 08:47:01;;;;;;;4.30;4.00;;;18.30;95.40;;;;;;4955989;29;20675;-68
2022/11/12 08:49:28;;;;;;;4.03;3.73;;;18.30;95.20;;;;;;4956055;29;20183;-68
2022/11/12 08:51:54;;;;;;;3.70;3.40;;;18.30;95.10;;;;;;4956251;29;20196;-70
2022/11/12 08:54:20;;;;;;;4.30;3.90;;;18.50;94.80;;;;;;4955921;28;20416;-70
2022/11/12 08:56:45;;;;;;;4.47;4.00;;;18.60;93.40;;;;;;4956149;29;20436;-70
2022/11/12 08:59:11;;;;;;;5.07;4.53;;;18.50;93.50;;;;;;4955235;29;20256;-70
2022/11/12 09:01:37;;;;;;;4.00;3.70;;;18.40;93.30;;;;;;4955533;29;20287;-70
2022/11/12 09:04:03;;;;;;;9.67;6.50;;;18.50;93.50;;;;;;4955571;28;20310;-70
2022/11/12 09:06:29;;;;;;;4.67;3.67;;;18.30;92.30;;;;;;4955836;28;20649;-69
2022/11/12 09:08:55;;;;;;;4.30;3.90;;;18.10;93.70;;;;;;4956101;29;20415;-78
2022/11/12 09:11:20;;;;;;;4.97;4.40;;;18.20;93.70;;;;;;4956020;29;20176;-72
2022/11/12 09:13:46;;;;;;;6.40;5.73;;;18.30;93.70;;;;;;4937838;29;20636;-71
2022/11/12 09:16:11;;;;;;;4.13;3.83;;;18.50;93.30;;;;;;4955812;29;20255;-71
2022/11/12 09:18:37;;;;;;;3.80;3.40;;;18.50;92.70;;;;;;4955852;29;20227;-68
2022/11/12 09:21:09;;;;;;;3.70;3.40;;;18.30;93.20;;;;;;4955506;29;20163;-68
2022/11/12 09:23:35;;;;;;;3.93;3.53;;;18.00;92.80;;;;;;4954939;28;20173;-73
2022/11/12 09:26:02;;;;;;;4.43;4.03;;;17.50;93.20;;;;;;4938124;29;20529;-72
2022/11/12 09:28:27;;;;;;;4.83;4.43;;;17.00;94.20;;;;;;4937332;29;20415;-73
2022/11/12 09:30:54;;;;;;;4.40;4.00;;;16.60;95.60;;;;;;4954933;29;20408;-73
2022/11/12 09:33:29;;;;;;;5.30;4.40;;;16.40;96.50;;;;;;4954709;28;20180;-71
2022/11/12 09:35:58;;;;;;;4.10;3.80;;;16.60;96.80;;;;;;4955700;29;20508;-71
2022/11/12 09:38:24;;;;;;;4.07;3.73;;;16.70;95.90;;;;;;4955484;29;20838;-72
2022/11/12 09:40:52;;;;;;;4.23;3.87;;;16.90;96.00;;;;;;4955168;29;20509;-73
2022/11/12 09:43:41;;;;;;;4.10;3.70;;;17.20;96.10;;;;;;4954593;28;20210;-74
2022/11/12 09:46:38;;;;;;;4.30;3.83;;;17.30;95.20;;;;;;4955640;29;20720;-71
2022/11/12 09:49:06;;;;;;;4.60;4.20;;;17.20;95.40;;;;;;4953045;29;20431;-73
2022/11/12 09:51:35;;;;;;;4.60;4.10;;;17.10;95.40;;;;;;4953274;29;20423;-73
2022/11/12 09:54:12;;;;;;;4.77;4.37;;;16.90;95.50;;;;;;4935263;29;20989;-73
2022/11/12 09:56:38;;;;;;;3.80;3.50;;;16.80;96.00;;;;;;4953459;29;20472;-74
2022/11/12 09:59:10;;;;;;;5.87;4.40;;;16.70;96.10;;;;;;4950426;29;20438;-72
2022/11/12 10:01:46;;;;;;;4.50;4.10;;;16.60;96.30;;;;;;4934326;29;20339;-75
2022/11/12 10:04:37;;;;;;;3.63;3.30;;;16.20;96.60;;;;;;4952553;28;20431;-74
2022/11/12 10:07:32;;;;;;;4.80;3.50;;;16.00;96.30;;;;;;4953130;29;20448;-72
2022/11/12 10:10:42;;;;;;;3.90;3.60;;;15.80;96.70;;;;;;4952448;29;20429;-74
2022/11/12 10:13:30;;;;;;;3.60;3.30;;;15.60;96.80;;;;;;4914727;29;20473;-74
2022/11/12 10:19:10;;;;;;;3.00;2.70;;;15.30;96.50;;;;;;4943086;29;20471;-73
2022/11/12 10:21:52;;;;;;;3.10;2.90;;;15.00;97.30;;;;;;4952708;29;20452;-75
2022/11/12 10:24:20;;;;;;;2.90;2.57;;;14.90;97.40;;;;;;4933342;29;20434;-73
2022/11/12 10:26:47;;;;;;;3.23;3.00;;;14.90;97.60;;;;;;4917935;29;20442;-74
2022/11/12 10:29:35;;;;;;;3.40;3.10;;;15.10;97.40;;;;;;4934236;29;20414;-74
2022/11/12 10:32:02;;;;;;;3.20;2.90;;;15.20;97.40;;;;;;4921758;29;20487;-74
2022/11/12 10:34:30;;;;;;;3.30;2.67;;;15.40;96.90;;;;;;4954384;28;20816;-75
2022/11/12 10:37:17;;;;;;;3.10;2.90;;;15.40;97.40;;;;;;4954806;29;20405;-75
2022/11/12 10:39:46;;;;;;;3.20;3.00;;;15.60;97.30;;;;;;4938713;29;20416;-73
2022/11/12 10:42:17;;;;;;;3.10;2.90;;;15.70;96.90;;;;;;4959021;29;20756;-72
2022/11/12 10:44:44;;;;;;;3.27;2.97;;;15.60;96.70;;;;;;4958814;28;20432;-73
2022/11/12 10:47:41;;;;;;;2.83;2.63;;;15.60;97.10;;;;;;4958402;29;20475;-74
2022/11/12 10:50:16;;;;;;;2.93;2.73;;;15.60;96.70;;;;;;4953941;29;20508;-74
2022/11/12 10:52:52;;;;;;;3.60;3.10;;;15.50;97.20;;;;;;4957949;29;20412;-73
2022/11/12 10:55:42;;;;;;;3.77;3.13;;;15.50;97.50;;;;;;4940930;29;20751;-73
2022/11/12 10:58:11;;;;;;;4.30;3.90;;;15.50;96.90;;;;;;4956735;29;20943;-75
2022/11/12 11:00:51;;;;;;;3.90;3.60;;;15.50;97.20;;;;;;4958217;29;20483;-72
2022/11/12 11:03:22;;;;;;;3.33;3.03;;;15.40;97.50;;;;;;4957970;28;20473;-74
2022/11/12 11:06:13;;;;;;;3.53;2.90;;;15.20;97.30;;;;;;4957947;29;20441;-71
2022/11/12 11:08:49;;;;;;;4.67;3.30;;;15.10;97.40;;;;;;4957496;29;20720;-72
2022/11/12 11:11:23;;;;;;;3.53;3.23;;;15.00;97.40;;;;;;4957862;29;20500;-72
2022/11/12 11:13:52;;;;;;;3.20;3.00;;;14.80;98.10;;;;;;4957042;28;20441;-70
2022/11/12 11:16:19;;;;;;;5.33;4.83;;;14.70;98.40;;;;;;4957653;29;20515;-71
2022/11/12 11:18:49;;;;;;;3.83;3.40;;;14.60;99.30;;;;;;4957807;29;20426;-70
2022/11/12 11:21:49;;;;;;;3.13;2.83;;;14.40;99.20;;;;;;4957850;29;20914;-71
2022/11/12 11:24:42;;;;;;;3.73;3.30;;;14.30;99.50;;;;;;4957372;28;20782;-71
2022/11/12 11:27:23;;;;;;;3.07;2.87;;;14.30;99.90;;;;;;4938482;29;20469;-70
2022/11/12 11:30:11;;;;;;;2.90;2.70;;;14.10;99.90;;;;;;4953210;29;20420;-70
2022/11/12 11:32:42;;;;;;;3.03;2.70;;;14.00;99.90;;;;;;4956705;29;20421;-68
2022/11/12 11:35:39;;;;;;;4.03;3.63;;;14.00;99.90;;;;;;4940026;29;20469;-67
2022/11/12 11:38:21;;;;;;;5.73;2.77;;;14.10;99.90;;;;;;4940896;29;20521;-69
2022/11/12 11:41:14;;;;;;;3.37;3.07;;;14.20;99.90;;;;;;4940417;29;20422;-67
2022/11/12 11:43:47;;;;;;;4.07;3.77;;;14.30;99.90;;;;;;4939372;28;20489;-67
2022/11/12 11:46:18;;;;;;;3.23;2.93;;;14.30;99.90;;;;;;4957571;29;20956;-67
2022/11/12 11:48:56;;;;;;;4.30;3.90;;;14.20;99.90;;;;;;4957419;29;20497;-66
2022/11/12 11:51:33;;;;;;;3.00;2.80;;;14.20;99.90;;;;;;4956236;28;20454;-66
2022/11/12 11:54:26;;;;;;;3.50;3.10;;;14.20;99.90;;;;;;4956642;28;20428;-65
2022/11/12 11:56:57;;;;;;;3.83;3.50;;;14.20;99.90;;;;;;4956201;29;20515;-64
2022/11/12 11:59:41;;;;;;;8.37;4.30;;;14.20;99.90;;;;;;4956047;29;20478;-63
2022/11/12 12:02:40;;;;;;;6.30;4.20;;;14.30;99.90;;;;;;4954679;29;20464;-64
2022/11/12 12:05:20;;;;;;;4.60;3.97;;;14.20;99.90;;;;;;4954543;28;20452;-64
2022/11/12 12:08:03;;;;;;;3.53;3.23;;;14.20;99.90;;;;;;4957044;29;20466;-65
2022/11/12 12:11:13;;;;;;;5.17;3.93;;;14.20;99.90;;;;;;4956752;29;20524;-66
2022/11/12 12:13:44;;;;;;;3.57;3.27;;;14.10;99.90;;;;;;4935147;28;20463;-66
2022/11/12 12:16:46;;;;;;;3.90;3.40;;;14.10;99.90;;;;;;4954574;29;20420;-66
2022/11/12 12:19:30;;;;;;;4.33;3.83;;;14.10;99.90;;;;;;4956387;29;20482;-66
2022/11/12 12:21:59;;;;;;;3.63;3.33;;;14.20;99.90;;;;;;4956859;29;20455;-66
2022/11/12 12:24:55;;;;;;;4.97;3.63;;;14.10;99.90;;;;;;4956140;28;20484;-66
2022/11/12 12:27:33;;;;;;;4.30;3.90;;;14.10;99.90;;;;;;4956138;29;20797;-65
2022/11/12 12:30:34;;;;;;;4.80;4.40;;;14.20;99.90;;;;;;4956985;29;20404;-65
2022/11/12 12:33:22;;;;;;;4.13;3.50;;;14.30;99.90;;;;;;4951523;29;20465;-65
2022/11/12 12:35:57;;;;;;;4.17;3.77;;;14.30;99.90;;;;;;4953365;29;20737;-66
2022/11/12 12:39:00;;;;;;;5.47;4.47;;;14.20;99.90;;;;;;4955994;29;20427;-65
2022/11/12 12:41:35;;;;;;;4.50;3.80;;;14.20;99.90;;;;;;4956349;29;20418;-64
2022/11/12 12:44:07;;;;;;;4.27;3.93;;;14.20;99.90;;;;;;4955775;28;20434;-63
2022/11/12 12:46:48;;;;;;;5.07;4.63;;;14.20;99.90;;;;;;4956040;29;20813;-62
2022/11/12 12:49:17;;;;;;;5.93;3.47;;;14.10;99.90;;;;;;4956408;29;20439;-63
2022/11/12 12:51:43;;;;;;;3.67;3.37;;;14.10;99.90;;;;;;4956314;29;20456;-63
2022/11/12 12:54:34;;;;;;;5.40;4.17;;;14.20;99.90;;;;;;4955342;28;20481;-63
2022/11/12 12:56:59;;;;;;;5.67;3.30;;;14.30;99.90;;;;;;4936985;29;20405;-68
2022/11/12 12:59:25;;;;;;;3.97;3.67;;;14.30;99.90;;;;;;4937201;29;20409;-68
2022/11/12 13:01:56;;;;;;;4.37;3.97;;;14.30;99.90;;;;;;4936791;29;21016;-74
2022/11/12 13:04:53;;;;;;;3.67;3.37;;;14.30;99.90;;;;;;4936176;29;20829;-71
2022/11/12 13:07:38;;;;;;;4.20;3.27;;;14.30;99.90;;;;;;4937433;29;20421;-65
2022/11/12 13:10:37;;;;;;;4.40;3.90;;;14.30;99.90;;;;;;4955790;29;20424;-65
2022/11/12 13:13:28;;;;;;;8.10;3.67;;;14.30;99.90;;;;;;4955192;29;20527;-68
2022/11/12 13:15:56;;;;;;;4.33;3.87;;;14.20;99.90;;;;;;4955569;29;20413;-65
2022/11/12 13:18:36;;;;;;;5.27;3.10;;;14.20;99.90;;;;;;4955272;29;20421;-66
2022/11/12 13:21:09;;;;;;;3.10;2.80;;;14.20;99.90;;;;;;4955681;29;20964;-66
2022/11/12 13:26:49;;;;;;;4.20;3.80;;;14.20;99.90;;;;;;4955522;29;20900;-73
2022/11/12 13:29:39;;;;;;;4.27;3.87;;;14.10;99.90;;;;;;4955351;29;20408;-65
2022/11/12 13:32:34;;;;;;;3.90;3.60;;;14.10;99.90;;;;;;4955054;29;20428;-65
2022/11/12 13:35:29;;;;;;;4.47;3.60;;;14.10;99.90;;;;;;4934596;29;20441;-68
2022/11/12 13:38:07;;;;;;;5.87;4.30;;;14.20;99.90;;;;;;4929240;29;21286;-66
2022/11/12 13:40:41;;;;;;;4.20;3.73;;;14.20;99.90;;;;;;4936222;29;20409;-67
2022/11/12 13:43:26;;;;;;;4.57;4.20;;;14.30;99.90;;;;;;4935158;29;20468;-66
2022/11/12 13:46:09;;;;;;;4.07;3.67;;;14.30;99.90;;;;;;4935255;29;20409;-67
2022/11/12 13:48:38;;;;;;;4.20;3.80;;;14.30;99.90;;;;;;4934527;29;20424;-66
2022/11/12 13:51:19;;;;;;;3.50;3.27;;;14.30;99.90;;;;;;4935705;29;20388;-66
2022/11/12 13:53:45;;;;;;;6.20;3.70;;;14.30;99.90;;;;;;4935675;29;20433;-67
2022/11/12 13:56:12;;;;;;;4.50;3.90;;;14.20;99.90;;;;;;4935977;29;20405;-66
2022/11/12 13:58:42;;;;;;;4.70;3.03;;;14.20;99.90;;;;;;4935944;29;20424;-65
2022/11/12 14:01:10;;;;;;;6.80;4.50;;;14.10;99.90;;;;;;4936950;29;20419;-65
2022/11/12 14:03:42;;;;;;;3.67;3.37;;;14.00;99.90;;;;;;4952562;28;20478;-66
2022/11/12 14:06:21;;;;;;;4.30;3.90;;;13.90;99.90;;;;;;4952716;29;20453;-65
2022/11/12 14:09:35;;;;;;;4.03;3.60;;;13.90;99.90;;;;;;4952753;29;20481;-66
2022/11/12 14:12:37;;;;;;;4.07;3.73;;;13.90;99.90;;;;;;4940628;29;20726;-67
2022/11/12 14:15:28;;;;;;;6.70;3.30;;;13.90;99.90;;;;;;4952307;28;20756;-66
2022/11/12 14:18:21;;;;;;;3.70;3.40;;;13.90;99.90;;;;;;4935341;29;20392;-66
2022/11/12 14:20:48;;;;;;;4.60;3.73;;;13.80;99.90;;;;;;4935622;29;20786;-67
2022/11/12 14:23:18;;;;;;;4.97;4.30;;;13.80;99.90;;;;;;4939689;29;20457;-66
2022/11/12 14:25:53;;;;;;;4.83;4.17;;;13.80;99.90;;;;;;4935626;29;20417;-66
2022/11/12 14:28:27;;;;;;;4.10;3.70;;;13.80;99.90;;;;;;4935728;29;20379;-66
2022/11/12 14:30:54;;;;;;;6.13;3.97;;;13.70;99.90;;;;;;4943029;29;20478;-67
2022/11/12 14:33:22;;;;;;;4.40;4.00;;;13.70;99.90;;;;;;4954069;28;20796;-65
2022/11/12 14:36:02;;;;;;;5.10;4.60;;;13.60;99.90;;;;;;4954643;29;20440;-65
2022/11/12 14:38:33;;;;;;;4.00;3.70;;;13.60;99.90;;;;;;4937460;29;20423;-66
2022/11/12 14:41:17;;;;;;;9.10;7.57;;;13.50;99.90;;;;;;4954807;29;20431;-67
2022/11/12 14:43:45;;;;;;;5.80;5.10;;;13.50;99.90;;;;;;4954347;28;20462;-67
2022/11/12 14:46:47;;;;;;;5.30;4.30;;;13.40;99.90;;;;;;4954583;29;20455;-66
2022/11/12 14:49:36;;;;;;;4.80;4.30;;;13.40;99.90;;;;;;4954764;29;20475;-65
2022/11/12 14:52:15;;;;;;;4.00;3.70;;;13.30;99.90;;;;;;4954986;29;20444;-68
2022/11/12 14:54:50;;;;;;;4.60;4.20;;;13.20;99.90;;;;;;4954122;28;20436;-66
2022/11/12 14:57:25;;;;;;;5.33;4.37;;;13.10;99.90;;;;;;4954509;29;20477;-66
2022/11/12 14:59:50;;;;;;;4.50;4.10;;;13.10;99.90;;;;;;4937644;29;20796;-65
2022/11/12 15:02:31;;;;;;;6.23;5.37;;;13.00;99.90;;;;;;4954327;29;20471;-65
2022/11/12 15:05:15;;;;;;;9.13;4.47;;;12.90;99.90;;;;;;4954137;28;20575;-66
2022/11/12 15:07:57;;;;;;;7.23;4.23;;;12.80;99.90;;;;;;4954557;29;20507;-66
2022/11/12 15:10:43;;;;;;;6.47;5.80;;;12.70;99.90;;;;;;4954240;29;20419;-66
2022/11/12 15:13:12;;;;;;;5.30;4.70;;;12.60;99.90;;;;;;4954126;29;20423;-67
2022/11/12 15:15:49;;;;;;;7.60;5.53;;;12.50;99.90;;;;;;4953990;28;20847;-66
2022/11/12 15:18:21;;;;;;;7.57;5.83;;;12.50;99.90;;;;;;4953840;29;20446;-67
2022/11/12 15:21:15;;;;;;;5.60;4.70;;;12.30;99.90;;;;;;4954260;29;20506;-66
2022/11/12 15:24:15;;;;;;;6.13;5.53;;;12.20;99.90;;;;;;4953980;28;20850;-67
2022/11/12 15:26:43;;;;;;;5.43;4.83;;;12.10;99.90;;;;;;4956566;28;20422;-66
2022/11/12 15:29:09;;;;;;;5.50;4.40;;;12.00;99.90;;;;;;4957698;29;20427;-66
2022/11/12 15:31:45;;;;;;;5.27;4.77;;;11.90;99.90;;;;;;4957797;29;20923;-67
2022/11/12 15:34:40;;;;;;;6.10;5.50;;;11.80;99.90;;;;;;4940071;29;20563;-67
2022/11/12 15:37:08;;;;;;;5.17;4.50;;;11.70;99.90;;;;;;4957795;29;20419;-66
2022/11/12 15:39:41;;;;;;;9.13;4.60;;;11.60;99.90;;;;;;4957688;29;20454;-66
2022/11/12 15:42:31;;;;;;;4.93;4.53;;;11.50;99.90;;;;;;4957682;29;20463;-67
2022/11/12 15:44:59;;;;;;;5.73;5.13;;;11.40;99.90;;;;;;4939862;29;20442;-65
2022/11/12 15:47:25;;;;;;;6.32;5.72;;;11.30;99.90;;;;;;4957678;29;20408;-66
2022/11/12 15:49:53;;;;;;;5.50;5.00;;;11.20;99.90;;;;;;4957505;29;20183;-66
2022/11/12 15:52:19;;;;;;;6.00;5.25;;;11.10;99.90;;;;;;4957428;29;20189;-66
2022/11/12 15:54:45;;;;;;;7.87;6.20;;;11.00;99.90;;;;;;4957243;28;20198;-66
2022/11/12 15:57:21;;;;;;;8.60;5.23;;;10.90;99.90;;;;;;4955930;29;20788;-66
2022/11/12 16:00:33;;;;;;;5.53;4.63;;;10.80;99.90;;;;;;4956355;29;20425;-66
2022/11/12 16:03:03;;;;;;;5.70;5.20;;;10.70;99.90;;;;;;4949026;29;20475;-66
2022/11/12 16:05:28;;;;;;;6.50;5.00;;;10.50;99.90;;;;;;4957108;28;20231;-67
2022/11/12 16:07:54;;;;;;;9.90;6.20;;;10.50;99.90;;;;;;4957088;29;20527;-66
2022/11/12 16:10:19;;;;;;;7.87;5.80;;;10.40;99.90;;;;;;4956693;29;20183;-67
2022/11/12 16:12:46;;;;;;;5.27;4.87;;;10.30;99.90;;;;;;4956833;29;20181;-67
2022/11/12 16:15:14;;;;;;;6.43;5.82;;;10.20;99.90;;;;;;4957043;28;20235;-65
2022/11/12 16:17:40;;;;;;;6.72;6.13;;;10.20;99.90;;;;;;4957299;29;20179;-66
2022/11/12 16:20:24;;;;;;;6.47;5.80;;;10.10;99.90;;;;;;4957252;29;20279;-66
2022/11/12 16:22:50;;;;;;;6.22;5.53;;;10.00;99.90;;;;;;4956500;29;20189;-66
2022/11/12 16:25:17;;;;;;;7.00;6.15;;;9.90;99.90;;;;;;4956858;28;20193;-64
2022/11/12 16:27:43;;;;;;;7.80;6.82;;;9.80;99.90;;;;;;4956830;29;20172;-66
2022/11/12 16:30:14;;;;;;;7.27;5.83;;;9.80;99.90;;;;;;4956752;29;20185;-67
2022/11/12 16:32:40;;;;;;;8.40;7.03;;;9.70;99.90;;;;;;4956489;29;20173;-66
2022/11/12 16:35:06;;;;;;;7.17;6.47;;;9.60;99.90;;;;;;4956921;28;20201;-66
2022/11/12 16:37:31;;;;;;;7.07;6.25;;;9.60;99.90;;;;;;4956298;28;20169;-66
2022/11/12 16:39:57;;;;;;;6.77;6.10;;;9.50;99.90;;;;;;4956594;29;20170;-66
2022/11/12 16:42:23;;;;;;;8.50;6.80;;;9.50;99.90;;;;;;4956417;29;20219;-65
2022/11/12 16:44:48;;;;;;;7.70;6.43;;;9.40;99.90;;;;;;4956017;28;20201;-66
2022/11/12 16:47:14;;;;;;;8.57;7.73;;;9.40;99.90;;;;;;4956675;29;20176;-66
2022/11/12 16:49:41;;;;;;;8.17;7.40;;;9.30;99.90;;;;;;4956485;29;20307;-66
2022/11/12 16:52:09;;;;;;;9.00;8.10;;;9.30;99.90;;;;;;4956387;29;20226;-67
2022/11/12 16:54:34;;;;;;;7.63;6.53;;;9.20;99.90;;;;;;4955874;28;20561;-67
2022/11/12 16:57:00;;;;;;;10.93;7.50;;;9.20;99.90;;;;;;4956224;29;20173;-66
2022/11/12 16:59:25;;;;;;;6.97;6.37;;;9.20;99.90;;;;;;4955779;29;20235;-66
2022/11/12 17:01:51;;;;;;;8.63;7.87;;;9.10;99.90;;;;;;4956100;29;20221;-67
2022/11/12 17:04:17;;;;;;;7.70;6.63;;;9.10;99.90;;;;;;4938171;29;20192;-66
2022/11/12 17:06:42;;;;;;;6.93;6.23;;;9.00;99.90;;;;;;4939069;29;20189;-66
2022/11/12 17:09:10;;;;;;;7.60;6.70;;;9.00;99.90;;;;;;4955957;29;20170;-66
2022/11/12 17:11:37;;;;;;;8.77;7.95;;;9.00;99.90;;;;;;4956068;29;20165;-67
2022/11/12 17:14:04;;;;;;;8.32;7.53;;;8.90;99.90;;;;;;4955339;28;20197;-67
2022/11/12 17:16:30;;;;;;;10.07;8.63;;;8.90;99.90;;;;;;4955982;29;20185;-66
2022/11/12 17:18:58;;;;;;;16.52;10.98;;;8.90;99.90;;;;;;4955993;29;20165;-68
2022/11/12 17:21:24;;;;;;;14.48;10.23;;;8.80;99.90;;;;;;4955424;29;20177;-67
2022/11/12 17:23:50;;;;;;;9.00;8.20;;;8.80;99.90;;;;;;4955090;28;20197;-66
2022/11/12 17:26:18;;;;;;;9.10;8.07;;;8.80;99.90;;;;;;4956029;29;20199;-66
2022/11/12 17:28:44;;;;;;;8.25;7.45;;;8.70;99.90;;;;;;4955865;29;20180;-67
2022/11/12 17:31:13;;;;;;;8.30;7.60;;;8.70;99.90;;;;;;4955789;29;20169;-66
2022/11/12 17:33:50;;;;;;;9.10;7.05;;;8.70;99.90;;;;;;4955152;28;20428;-68
2022/11/12 17:36:21;;;;;;;9.25;8.18;;;8.60;99.90;;;;;;4955133;29;20304;-66
2022/11/12 17:38:47;;;;;;;8.20;7.40;;;8.60;99.90;;;;;;4955560;29;20522;-67
2022/11/12 17:41:13;;;;;;;7.23;6.50;;;8.50;99.90;;;;;;4955427;29;20183;-65
2022/11/12 17:43:39;;;;;;;8.90;6.67;;;8.50;99.90;;;;;;4937701;28;20616;-66
2022/11/12 17:46:06;;;;;;;8.40;6.75;;;8.50;99.90;;;;;;4955651;29;20400;-66
2022/11/12 17:48:34;;;;;;;7.72;6.38;;;8.50;99.90;;;;;;4954977;28;20183;-66
2022/11/12 17:51:09;;;;;;;7.53;6.75;;;8.40;99.90;;;;;;4954666;29;20173;-67
2022/11/12 17:53:36;;;;;;;7.03;5.88;;;8.30;99.90;;;;;;4954878;28;20255;-66
2022/11/12 17:56:01;;;;;;;6.95;6.25;;;8.30;99.90;;;;;;4955335;29;20180;-66
2022/11/12 17:58:27;;;;;;;7.30;6.60;;;8.20;99.90;;;;;;4955428;29;20640;-68
2022/11/12 18:00:53;;;;;;;6.43;5.83;;;8.20;99.90;;;;;;4937977;29;20188;-68
2022/11/12 18:03:18;;;;;;;9.27;8.07;;;8.20;99.90;;;;;;4954675;28;20968;-67
2022/11/12 18:05:44;;;;;;;9.50;7.80;;;8.10;99.90;;;;;;4954433;28;20212;-66
2022/11/12 18:08:10;;;;;;;7.70;6.40;;;8.10;99.90;;;;;;4954870;29;20524;-67
2022/11/12 18:10:36;;;;;;;8.75;7.85;;;8.10;99.90;;;;;;4955162;29;20590;-67
2022/11/12 18:13:02;;;;;;;7.30;6.57;;;8.10;99.90;;;;;;4954610;29;20204;-67
2022/11/12 18:15:30;;;;;;;10.27;7.50;;;8.10;99.90;;;;;;4955065;28;20787;-67
2022/11/12 18:17:55;;;;;;;7.57;6.93;;;8.10;99.90;;;;;;4955104;29;20475;-67
2022/11/12 18:20:21;;;;;;;9.80;7.63;;;8.00;99.90;;;;;;4954726;29;20185;-68
2022/11/12 18:22:47;;;;;;;11.40;8.87;;;8.00;99.90;;;;;;4954643;29;20204;-67
2022/11/12 18:25:12;;;;;;;10.03;9.00;;;7.90;99.90;;;;;;4954567;28;20228;-67
2022/11/12 18:27:38;;;;;;;9.90;8.77;;;7.90;99.90;;;;;;4936979;29;20179;-67
2022/11/12 18:30:04;;;;;;;14.00;11.57;;;7.90;99.90;;;;;;4954636;29;20172;-65